Terminal Aerodrome Forecast
Issued by NWS Wakefield, VA

Home | Current Version | Previous Version | Text Only | Print | Product List | Glossary On
Versions: 1 2 3 4 5 6 7 8 9 10 11 12 13 14 15
343
FTUS41 KAKQ 270537
TAFSBY
TAF
KSBY 270537Z 2706/2806 00000KT P6SM SKC
     FM271200 16003KT P6SM BKN150
     FM271500 20009KT P6SM BKN120
     FM280000 15003KT P6SM OVC100=

USA.gov is the U.S. government's official web portal to all federal, state and local government web resources and services.